Terminal Aerodrome Forecast
Issued by NWS

Home | Current Version | Previous Version | Text Only | Print | Product List | Glossary On
Versions: 1 2 3 4 5 6 7 8 9 10 11 12 13 14 15 16 17 18 19 20 21 22 23
000
FTUS45 KCYS 071743
TAFAIA
TAF
KAIA 071743Z 0718/0818 32029G39KT P6SM SCT200
     FM080100 31020G28KT P6SM FEW200
     FM081100 31016KT P6SM BKN200=

USA.gov is the U.S. government's official web portal to all federal, state and local government web resources and services.